Chimney Rock, North Carolina
Current Conditions -  °F | °C
As of 12:54 PM on Thursday 29 Jan 2015 (Local Time) from KAVL Reporting Station
Overcast Overcast  
Wind Chill: 42°   Ceiling: 6500
Heat Index: 48°   Visibility: 10mi
Dew Point: 23°   Wind: 17mph
Humidity: 37%   Direction: 210°SSW
Pressure: 30.13"   Gusts: 24mph
Location:  35.44°N, 82.25°W
Report Text: KAVL 291754Z 21015G21KT 10SM BKN065 OVC100 09/M05 A3013 RMK AO2 SLP209 T00891050 10089 21039 58027
Loading
Personal Weather Stations






























Interactive Weather Map New forecast layout! Learn more

10-Day Weather Forecast

Advertisements
Track Severe Weather on mobile